Time;durP1;ratioP1;P1;durP2;ratioP2;P2;SDS_P1;SDS_P2;PMS_P1;PMS_P2;Temp;Humidity;BMP_temperature;BMP_pressure;BME280_temperature;BME280_humidity;BME280_pressure;Samples;Min_cycle;Max_cycle;Signal;HPM_P1;HPM_P2
2021/08/29 00:00:12;;;;;;;1.25;0.35;;;;;;;;;;5020981;28;20128;-78
2021/08/29 00:02:38;;;;;;;2.80;0.47;;;;;;;;;;5021147;28;20033;-78
2021/08/29 00:05:09;;;;;;;0.30;0.30;;;;;;;;;;5020316;28;20479;-78
2021/08/29 00:07:34;;;;;;;0.20;0.20;;;;;;;;;;5037050;28;20034;-78
2021/08/29 00:10:00;;;;;;;1.27;0.40;;;;;;;;;;5020687;28;20040;-79
2021/08/29 00:12:27;;;;;;;1.02;0.25;;;;;;;;;;5020301;28;20029;-78
2021/08/29 00:14:53;;;;;;;0.98;0.50;;;;;;;;;;5038017;28;20034;-79
2021/08/29 00:17:18;;;;;;;0.30;0.30;;;;;;;;;;5020856;28;20399;-79
2021/08/29 00:19:44;;;;;;;1.85;0.35;;;;;;;;;;5037431;28;20056;-78
2021/08/29 00:22:10;;;;;;;3.40;0.43;;;;;;;;;;5037243;28;20037;-78
2021/08/29 00:24:37;;;;;;;0.55;0.40;;;;;;;;;;5020301;28;20049;-78
2021/08/29 00:27:04;;;;;;;0.75;0.50;;;;;;;;;;5020258;28;20387;-79
2021/08/29 00:29:29;;;;;;;2.72;0.50;;;;;;;;;;5003400;28;20136;-78
2021/08/29 00:31:55;;;;;;;0.57;0.43;;;;;;;;;;5036970;28;20099;-78
2021/08/29 00:34:20;;;;;;;0.40;0.30;;;;;;;;;;5038016;28;20087;-79
2021/08/29 00:36:48;;;;;;;0.47;0.17;;;;;;;;;;5020686;28;20037;-79
2021/08/29 00:39:13;;;;;;;0.63;0.20;;;;;;;;;;5019928;28;20052;-79
2021/08/29 00:41:43;;;;;;;0.43;0.22;;;;;;;;;;5037552;28;20037;-79
2021/08/29 00:44:16;;;;;;;0.40;0.20;;;;;;;;;;5037632;28;20675;-79
2021/08/29 00:46:43;;;;;;;0.52;0.20;;;;;;;;;;5036898;28;20068;-79
2021/08/29 00:49:19;;;;;;;1.08;0.30;;;;;;;;;;5054118;28;20037;-79
2021/08/29 00:51:51;;;;;;;0.20;0.20;;;;;;;;;;5037861;28;20037;-79
2021/08/29 00:54:16;;;;;;;1.70;0.28;;;;;;;;;;5020336;28;20064;-78
2021/08/29 00:56:42;;;;;;;0.95;0.30;;;;;;;;;;5036919;28;20033;-79
2021/08/29 00:59:09;;;;;;;1.02;0.30;;;;;;;;;;5037140;28;20034;-78
2021/08/29 01:01:42;;;;;;;0.43;0.20;;;;;;;;;;5037062;28;20048;-80
2021/08/29 01:04:21;;;;;;;0.20;0.10;;;;;;;;;;5020548;28;20037;-79
2021/08/29 01:07:14;;;;;;;0.43;0.10;;;;;;;;;;5021065;28;20087;-78
2021/08/29 01:10:06;;;;;;;0.20;0.20;;;;;;;;;;5062477;28;20036;-78
2021/08/29 01:12:57;;;;;;;3.60;0.25;;;;;;;;;;5057231;28;20423;-79
2021/08/29 01:15:27;;;;;;;0.20;0.15;;;;;;;;;;5056675;28;20379;-79
2021/08/29 01:17:56;;;;;;;0.15;0.10;;;;;;;;;;5057192;28;20040;-79
2021/08/29 01:20:41;;;;;;;0.43;0.15;;;;;;;;;;5057804;28;20036;-79
2021/08/29 01:23:08;;;;;;;1.15;0.20;;;;;;;;;;5040871;28;20055;-79
2021/08/29 01:25:37;;;;;;;1.35;0.30;;;;;;;;;;5057841;28;20250;-79
2021/08/29 01:28:14;;;;;;;3.97;0.20;;;;;;;;;;5040574;28;20104;-79
2021/08/29 01:30:43;;;;;;;1.55;0.30;;;;;;;;;;5040522;28;20116;-79
2021/08/29 01:33:10;;;;;;;1.83;0.20;;;;;;;;;;5040135;28;20071;-79
2021/08/29 01:35:47;;;;;;;0.30;0.30;;;;;;;;;;5056112;28;20033;-79
2021/08/29 01:38:12;;;;;;;0.20;0.10;;;;;;;;;;5039187;28;20486;-79
2021/08/29 01:40:39;;;;;;;0.20;0.20;;;;;;;;;;5059490;28;20033;-79
2021/08/29 01:43:06;;;;;;;0.73;0.30;;;;;;;;;;5043402;28;20052;-79
2021/08/29 01:45:33;;;;;;;0.20;0.20;;;;;;;;;;5060125;28;20090;-79
2021/08/29 01:47:59;;;;;;;0.52;0.32;;;;;;;;;;5042565;28;20490;-78
2021/08/29 01:50:35;;;;;;;0.82;0.20;;;;;;;;;;5060059;28;20120;-78
2021/08/29 01:53:07;;;;;;;4.57;0.77;;;;;;;;;;5058941;28;20086;-78
2021/08/29 01:55:51;;;;;;;0.75;0.28;;;;;;;;;;5060892;28;20106;-79
2021/08/29 01:58:43;;;;;;;0.65;0.45;;;;;;;;;;5046128;28;20032;-78
2021/08/29 02:01:11;;;;;;;0.68;0.28;;;;;;;;;;5059278;28;20450;-78
2021/08/29 02:03:37;;;;;;;0.28;0.28;;;;;;;;;;5058640;28;20028;-78
2021/08/29 02:06:24;;;;;;;0.30;0.25;;;;;;;;;;5044959;28;20391;-78
2021/08/29 02:08:58;;;;;;;0.55;0.45;;;;;;;;;;5041746;28;20033;-78
2021/08/29 02:11:26;;;;;;;0.30;0.30;;;;;;;;;;5058817;28;20029;-78
2021/08/29 02:13:55;;;;;;;0.40;0.40;;;;;;;;;;5041823;28;20398;-79
2021/08/29 02:16:21;;;;;;;0.35;0.25;;;;;;;;;;5042376;28;20029;-79
2021/08/29 02:18:52;;;;;;;0.60;0.20;;;;;;;;;;5042939;28;20033;-79
2021/08/29 02:21:19;;;;;;;1.38;0.30;;;;;;;;;;5043050;28;20038;-78
2021/08/29 02:23:46;;;;;;;0.45;0.25;;;;;;;;;;5038673;28;20036;-78
2021/08/29 02:26:14;;;;;;;0.40;0.38;;;;;;;;;;5039258;28;20037;-79
2021/08/29 02:28:40;;;;;;;3.88;1.20;;;;;;;;;;5039882;28;20041;-79
2021/08/29 02:31:07;;;;;;;0.60;0.60;;;;;;;;;;5039106;28;20034;-78
2021/08/29 02:33:33;;;;;;;1.08;0.60;;;;;;;;;;5022726;28;20131;-79
2021/08/29 02:36:01;;;;;;;0.50;0.30;;;;;;;;;;5038953;28;20056;-78
2021/08/29 02:38:32;;;;;;;4.25;0.70;;;;;;;;;;5038325;28;20026;-78
2021/08/29 02:40:58;;;;;;;1.25;0.52;;;;;;;;;;5022122;28;20041;-79
2021/08/29 02:43:26;;;;;;;3.30;0.32;;;;;;;;;;5039455;28;20108;-78
2021/08/29 02:45:54;;;;;;;0.50;0.50;;;;;;;;;;5037571;28;20087;-78
2021/08/29 02:48:25;;;;;;;4.20;0.35;;;;;;;;;;5022918;28;20091;-78
2021/08/29 02:50:52;;;;;;;0.70;0.50;;;;;;;;;;5033168;28;20425;-78
2021/08/29 02:53:20;;;;;;;0.43;0.43;;;;;;;;;;5042599;28;20025;-78
2021/08/29 02:55:54;;;;;;;1.33;0.52;;;;;;;;;;5058532;28;20037;-78
2021/08/29 02:58:20;;;;;;;5.38;0.55;;;;;;;;;;5041584;28;20036;-78
2021/08/29 03:00:53;;;;;;;0.50;0.50;;;;;;;;;;5043629;28;20124;-78
2021/08/29 03:03:39;;;;;;;0.63;0.60;;;;;;;;;;5048375;28;20171;-78
2021/08/29 03:06:05;;;;;;;0.63;0.50;;;;;;;;;;5037875;28;20068;-78
2021/08/29 03:08:33;;;;;;;0.45;0.40;;;;;;;;;;5020739;28;20403;-79
2021/08/29 03:10:58;;;;;;;0.38;0.32;;;;;;;;;;5037524;28;20041;-78
2021/08/29 03:13:27;;;;;;;1.33;1.00;;;;;;;;;;5020432;28;20133;-78
2021/08/29 03:16:01;;;;;;;1.30;0.70;;;;;;;;;;5037476;28;20049;-79
2021/08/29 03:18:39;;;;;;;0.70;0.63;;;;;;;;;;5022293;28;20038;-78
2021/08/29 03:21:25;;;;;;;0.70;0.70;;;;;;;;;;5039568;28;20120;-79
2021/08/29 03:23:51;;;;;;;0.70;0.70;;;;;;;;;;5021213;28;20029;-78
2021/08/29 03:26:17;;;;;;;2.17;1.00;;;;;;;;;;5037608;28;20022;-79
2021/08/29 03:28:43;;;;;;;0.68;0.68;;;;;;;;;;5037545;28;20029;-79
2021/08/29 03:31:09;;;;;;;2.33;0.90;;;;;;;;;;5037861;28;20038;-80
2021/08/29 03:33:37;;;;;;;3.13;0.90;;;;;;;;;;5047182;28;20041;-79
2021/08/29 03:36:05;;;;;;;1.83;1.30;;;;;;;;;;5036886;28;20040;-79
2021/08/29 03:38:33;;;;;;;3.30;1.30;;;;;;;;;;5040600;28;20487;-79
2021/08/29 03:41:01;;;;;;;1.27;1.17;;;;;;;;;;5056883;28;20052;-79
2021/08/29 03:43:26;;;;;;;1.33;1.23;;;;;;;;;;5039919;28;20542;-79
2021/08/29 03:45:53;;;;;;;2.20;1.30;;;;;;;;;;5056091;28;20052;-79
2021/08/29 03:48:19;;;;;;;3.10;1.70;;;;;;;;;;5040268;28;20119;-79
2021/08/29 03:50:47;;;;;;;1.50;1.25;;;;;;;;;;5040396;28;20039;-79
2021/08/29 03:53:14;;;;;;;1.90;1.33;;;;;;;;;;5039795;28;20475;-79
2021/08/29 03:55:47;;;;;;;2.95;1.77;;;;;;;;;;5041473;28;20063;-79
2021/08/29 03:58:14;;;;;;;2.50;2.10;;;;;;;;;;5040190;28;20146;-79
2021/08/29 04:00:44;;;;;;;1.85;1.70;;;;;;;;;;5041723;28;20508;-80
2021/08/29 04:03:13;;;;;;;3.50;2.17;;;;;;;;;;5041428;28;20036;-80
2021/08/29 04:05:52;;;;;;;4.82;2.25;;;;;;;;;;5059733;28;20069;-80
2021/08/29 04:08:24;;;;;;;2.47;1.88;;;;;;;;;;5042601;28;20112;-79
2021/08/29 04:10:50;;;;;;;4.97;1.90;;;;;;;;;;5041479;28;20457;-80
2021/08/29 04:13:18;;;;;;;2.13;1.77;;;;;;;;;;5058452;28;20096;-80
2021/08/29 04:16:06;;;;;;;1.65;1.30;;;;;;;;;;5044825;28;20108;-79
2021/08/29 04:18:42;;;;;;;1.42;1.33;;;;;;;;;;5041724;28;20458;-79
2021/08/29 04:21:09;;;;;;;3.85;1.33;;;;;;;;;;5060079;28;20108;-79
2021/08/29 04:23:36;;;;;;;2.00;0.98;;;;;;;;;;5057915;28;20041;-79
2021/08/29 04:26:03;;;;;;;2.65;1.20;;;;;;;;;;5042193;28;20083;-80
2021/08/29 04:28:29;;;;;;;1.98;1.40;;;;;;;;;;5041269;28;20032;-79
2021/08/29 04:30:57;;;;;;;1.40;1.30;;;;;;;;;;5041352;28;20478;-79
2021/08/29 04:33:25;;;;;;;1.95;1.00;;;;;;;;;;5057109;28;20068;-79
2021/08/29 04:36:23;;;;;;;1.10;1.00;;;;;;;;;;5053641;28;20120;-79
2021/08/29 04:38:50;;;;;;;6.00;1.10;;;;;;;;;;5026353;28;20037;-80
2021/08/29 04:41:18;;;;;;;4.63;1.10;;;;;;;;;;5020845;28;20116;-79
2021/08/29 04:43:43;;;;;;;1.10;1.00;;;;;;;;;;5021043;28;20030;-79
2021/08/29 04:46:11;;;;;;;3.42;1.10;;;;;;;;;;5037543;28;20120;-79
2021/08/29 04:48:37;;;;;;;2.05;1.05;;;;;;;;;;5020897;28;20499;-80
2021/08/29 04:51:03;;;;;;;1.05;1.00;;;;;;;;;;5020834;28;20045;-79
2021/08/29 04:53:28;;;;;;;1.90;1.77;;;;;;;;;;5037412;28;20403;-79
2021/08/29 04:55:54;;;;;;;1.10;1.05;;;;;;;;;;5037129;28;20056;-79
2021/08/29 04:58:21;;;;;;;1.60;1.17;;;;;;;;;;5020285;28;20029;-79
2021/08/29 05:00:48;;;;;;;3.40;1.25;;;;;;;;;;5020666;28;20406;-79
2021/08/29 05:03:15;;;;;;;5.30;1.40;;;;;;;;;;5020505;28;20491;-80
2021/08/29 05:05:41;;;;;;;1.27;1.17;;;;;;;;;;5020608;28;20025;-79
2021/08/29 05:08:07;;;;;;;1.38;1.20;;;;;;;;;;5027768;28;20486;-80
2021/08/29 05:10:33;;;;;;;2.55;1.30;;;;;;;;;;5037059;28;20037;-79
2021/08/29 05:13:09;;;;;;;1.40;1.30;;;;;;;;;;5036396;28;20033;-79
2021/08/29 05:15:34;;;;;;;1.70;1.30;;;;;;;;;;5023351;28;20048;-79
2021/08/29 05:18:00;;;;;;;1.50;1.40;;;;;;;;;;5040582;28;20063;-79
2021/08/29 05:20:27;;;;;;;1.40;1.20;;;;;;;;;;5024121;28;20033;-81
2021/08/29 05:23:11;;;;;;;2.58;2.00;;;;;;;;;;5041116;28;20075;-79
2021/08/29 05:25:56;;;;;;;1.98;1.60;;;;;;;;;;5040488;28;20064;-79
2021/08/29 05:28:22;;;;;;;3.65;1.30;;;;;;;;;;5041535;28;20033;-79
2021/08/29 05:30:47;;;;;;;1.67;1.35;;;;;;;;;;5040274;28;20506;-79
2021/08/29 05:33:14;;;;;;;2.67;1.30;;;;;;;;;;5040433;28;20050;-79
2021/08/29 05:35:41;;;;;;;6.63;1.50;;;;;;;;;;5024104;28;20029;-79
2021/08/29 05:38:06;;;;;;;2.50;1.42;;;;;;;;;;5025391;28;20070;-79
2021/08/29 05:41:04;;;;;;;1.38;1.25;;;;;;;;;;5056285;28;20037;-79
2021/08/29 05:43:50;;;;;;;1.45;1.33;;;;;;;;;;5060372;28;20037;-79
2021/08/29 05:46:29;;;;;;;2.70;1.50;;;;;;;;;;5045346;28;20060;-79
2021/08/29 05:48:56;;;;;;;1.95;1.58;;;;;;;;;;5042666;28;20418;-79
2021/08/29 05:51:22;;;;;;;1.55;1.40;;;;;;;;;;5043075;28;20033;-79
2021/08/29 05:53:48;;;;;;;2.08;1.30;;;;;;;;;;5042474;28;20444;-79
2021/08/29 05:56:14;;;;;;;5.22;3.65;;;;;;;;;;5043161;28;20406;-79
2021/08/29 05:58:43;;;;;;;3.20;1.17;;;;;;;;;;5042708;28;20056;-79
2021/08/29 06:01:13;;;;;;;2.22;1.40;;;;;;;;;;5042539;28;20043;-79
2021/08/29 06:03:39;;;;;;;1.90;1.30;;;;;;;;;;5042971;28;20040;-79
2021/08/29 06:06:08;;;;;;;1.40;1.30;;;;;;;;;;5043600;28;20029;-79
2021/08/29 06:08:42;;;;;;;2.05;1.40;;;;;;;;;;5036203;28;20087;-79
2021/08/29 06:11:08;;;;;;;3.67;1.30;;;;;;;;;;5022834;28;20418;-79
2021/08/29 06:13:36;;;;;;;2.40;1.55;;;;;;;;;;5023283;28;20029;-80
2021/08/29 06:16:02;;;;;;;1.48;1.38;;;;;;;;;;5039610;28;20036;-79
2021/08/29 06:18:28;;;;;;;2.60;1.48;;;;;;;;;;5022823;28;20040;-79
2021/08/29 06:20:54;;;;;;;3.90;1.48;;;;;;;;;;5039009;28;20041;-79
2021/08/29 06:23:19;;;;;;;1.38;1.20;;;;;;;;;;5021742;28;20061;-78
2021/08/29 06:26:03;;;;;;;1.20;1.10;;;;;;;;;;5040669;28;20045;-78
2021/08/29 06:29:01;;;;;;;2.28;1.30;;;;;;;;;;5039108;28;20053;-76
2021/08/29 06:31:48;;;;;;;1.10;1.10;;;;;;;;;;5038966;28;20564;-78
2021/08/29 06:34:30;;;;;;;0.93;0.93;;;;;;;;;;5023315;28;20037;-78
2021/08/29 06:37:04;;;;;;;1.45;1.25;;;;;;;;;;5045530;28;20029;-80
2021/08/29 06:39:33;;;;;;;1.25;1.10;;;;;;;;;;5053886;28;20032;-81
2021/08/29 06:41:58;;;;;;;0.98;0.90;;;;;;;;;;5064051;28;20043;-81
2021/08/29 06:44:24;;;;;;;5.25;1.10;;;;;;;;;;5064331;28;20464;-79
2021/08/29 06:47:08;;;;;;;3.05;1.10;;;;;;;;;;5079184;28;20170;-79
2021/08/29 06:49:53;;;;;;;1.30;1.20;;;;;;;;;;5078586;28;20040;-81
2021/08/29 06:52:37;;;;;;;2.72;1.50;;;;;;;;;;5078212;28;20105;-79
2021/08/29 06:55:31;;;;;;;2.40;1.30;;;;;;;;;;5078075;28;20115;-80
2021/08/29 06:58:15;;;;;;;1.50;1.00;;;;;;;;;;5078409;28;20059;-80
2021/08/29 07:00:41;;;;;;;1.48;1.38;;;;;;;;;;5062621;28;20037;-79
2021/08/29 07:03:09;;;;;;;3.00;1.65;;;;;;;;;;5062775;28;20036;-80
2021/08/29 07:05:36;;;;;;;1.42;1.23;;;;;;;;;;5061844;28;20032;-80
2021/08/29 07:08:19;;;;;;;1.98;1.35;;;;;;;;;;5055765;28;20021;-80
2021/08/29 07:10:45;;;;;;;2.35;1.40;;;;;;;;;;5039229;28;20040;-80
2021/08/29 07:13:31;;;;;;;3.45;1.23;;;;;;;;;;5040734;28;20064;-82
2021/08/29 07:16:02;;;;;;;1.17;1.05;;;;;;;;;;5039481;28;20033;-80
2021/08/29 07:18:28;;;;;;;1.42;1.10;;;;;;;;;;5038786;28;20026;-80
2021/08/29 07:21:14;;;;;;;2.50;1.10;;;;;;;;;;5041928;28;20455;-82
2021/08/29 07:23:58;;;;;;;1.88;1.10;;;;;;;;;;5039734;28;20057;-78
2021/08/29 07:26:44;;;;;;;2.60;1.13;;;;;;;;;;5042845;28;20052;-78
2021/08/29 07:29:28;;;;;;;1.00;0.98;;;;;;;;;;5044726;28;20561;-78
2021/08/29 07:32:12;;;;;;;1.35;1.00;;;;;;;;;;5044311;28;20096;-79
2021/08/29 07:34:40;;;;;;;1.25;1.15;;;;;;;;;;5027565;28;20037;-79
2021/08/29 07:37:27;;;;;;;2.03;0.85;;;;;;;;;;5037464;28;20052;-79
2021/08/29 07:39:54;;;;;;;1.15;0.90;;;;;;;;;;5053525;28;20032;-79
2021/08/29 07:42:20;;;;;;;0.80;0.80;;;;;;;;;;5057687;28;20616;-80
2021/08/29 07:44:46;;;;;;;0.70;0.70;;;;;;;;;;5044772;28;20060;-80
2021/08/29 07:47:15;;;;;;;0.85;0.85;;;;;;;;;;5043520;28;20033;-80
2021/08/29 07:49:41;;;;;;;0.88;0.80;;;;;;;;;;5041721;28;20049;-82
2021/08/29 07:52:10;;;;;;;1.10;1.00;;;;;;;;;;5041885;28;20405;-81
2021/08/29 07:55:08;;;;;;;0.85;0.68;;;;;;;;;;5059198;28;20041;-81
2021/08/29 07:57:52;;;;;;;1.20;0.80;;;;;;;;;;5059130;28;20047;-81
2021/08/29 08:00:26;;;;;;;0.75;0.70;;;;;;;;;;5041895;28;20033;-81
2021/08/29 08:03:12;;;;;;;;;;;;;;;;;;5058540;28;20044;-81
2021/08/29 08:05:58;;;;;;;0.63;0.63;;;;;;;;;;5060061;28;19920;-81
2021/08/29 08:08:43;;;;;;;0.38;0.38;;;;;;;;;;5059419;28;20033;-81
2021/08/29 08:11:30;;;;;;;0.40;0.40;;;;;;;;;;5060448;28;20083;-81
2021/08/29 08:13:55;;;;;;;0.70;0.68;;;;;;;;;;5060095;28;20060;-81
2021/08/29 08:16:23;;;;;;;0.47;0.38;;;;;;;;;;5043828;28;20479;-81
2021/08/29 08:18:49;;;;;;;0.60;0.60;;;;;;;;;;5042648;28;20052;-81
2021/08/29 08:21:19;;;;;;;0.85;0.47;;;;;;;;;;5058042;28;20032;-82
2021/08/29 08:23:45;;;;;;;0.55;0.55;;;;;;;;;;5057534;28;20044;-81
2021/08/29 08:26:32;;;;;;;0.38;0.28;;;;;;;;;;5057407;28;20066;-81
2021/08/29 08:29:18;;;;;;;0.35;0.30;;;;;;;;;;5057566;28;20071;-81
2021/08/29 08:32:02;;;;;;;0.30;0.30;;;;;;;;;;5055879;28;20064;-81
2021/08/29 08:34:50;;;;;;;2.30;0.95;;;;;;;;;;5056851;28;20044;-81
2021/08/29 08:37:26;;;;;;;0.30;0.20;;;;;;;;;;5040629;28;20029;-80
2021/08/29 08:40:11;;;;;;;;;;;;;;;;;;5057438;28;20033;-81
2021/08/29 08:42:41;;;;;;;0.20;0.15;;;;;;;;;;5040296;28;19913;-81
2021/08/29 08:45:25;;;;;;;0.55;0.35;;;;;;;;;;5058557;28;20079;-81
2021/08/29 08:48:10;;;;;;;1.55;0.22;;;;;;;;;;5055908;28;20040;-81
2021/08/29 08:51:00;;;;;;;0.28;0.20;;;;;;;;;;5057309;28;20491;-81
2021/08/29 08:53:50;;;;;;;0.17;0.17;;;;;;;;;;5057298;28;20059;-82
2021/08/29 08:56:19;;;;;;;0.55;0.40;;;;;;;;;;5055833;28;20098;-81
2021/08/29 08:59:09;;;;;;;0.30;0.20;;;;;;;;;;5054784;28;20494;-81
2021/08/29 09:01:51;;;;;;;0.20;0.20;;;;;;;;;;5057580;28;20132;-81
2021/08/29 09:04:36;;;;;;;0.22;0.22;;;;;;;;;;5043603;28;20086;-81
2021/08/29 09:07:02;;;;;;;0.52;0.40;;;;;;;;;;5043641;28;20109;-80
2021/08/29 09:09:32;;;;;;;0.65;0.30;;;;;;;;;;5037935;28;20043;-81
2021/08/29 09:11:58;;;;;;;0.45;0.30;;;;;;;;;;5038570;28;20044;-79
2021/08/29 09:14:47;;;;;;;0.00;0.00;;;;;;;;;;5039101;28;20226;-83
2021/08/29 09:17:37;;;;;;;0.40;0.10;;;;;;;;;;5040284;28;20037;-81
2021/08/29 09:20:18;;;;;;;0.40;0.10;;;;;;;;;;5039837;28;20041;-82
2021/08/29 09:22:47;;;;;;;0.20;0.20;;;;;;;;;;5039579;28;20033;-81
2021/08/29 09:25:40;;;;;;;0.00;0.00;;;;;;;;;;5056589;28;20116;-83
2021/08/29 09:28:24;;;;;;;0.00;0.00;;;;;;;;;;5041535;28;20036;-81
2021/08/29 09:30:58;;;;;;;0.05;0.05;;;;;;;;;;5039622;28;20429;-81
2021/08/29 09:33:32;;;;;;;4.38;0.20;;;;;;;;;;5038341;28;20055;-80
2021/08/29 09:36:00;;;;;;;0.10;0.10;;;;;;;;;;5038900;28;20124;-80
2021/08/29 09:38:47;;;;;;;0.10;0.10;;;;;;;;;;5055650;28;20060;-81
2021/08/29 09:41:22;;;;;;;0.10;0.10;;;;;;;;;;5039237;28;20029;-81
2021/08/29 09:44:23;;;;;;;0.43;0.30;;;;;;;;;;5056798;28;20120;-82
2021/08/29 09:47:14;;;;;;;0.70;0.08;;;;;;;;;;5056084;28;20654;-79
2021/08/29 09:50:05;;;;;;;0.17;0.17;;;;;;;;;;5054934;28;20052;-79
2021/08/29 09:52:37;;;;;;;1.00;0.17;;;;;;;;;;5039610;28;20079;-84
2021/08/29 09:55:27;;;;;;;0.30;0.10;;;;;;;;;;5044374;28;20116;-84
2021/08/29 09:58:31;;;;;;;3.50;0.32;;;;;;;;;;5060119;28;20052;-83
2021/08/29 10:01:22;;;;;;;0.20;0.10;;;;;;;;;;5043645;28;20035;-82
2021/08/29 10:04:20;;;;;;;0.30;0.10;;;;;;;;;;5045102;28;20029;-82
2021/08/29 10:06:54;;;;;;;4.95;0.20;;;;;;;;;;5045459;28;20480;-83
2021/08/29 10:09:27;;;;;;;0.00;0.00;;;;;;;;;;5035528;28;20032;-84
2021/08/29 10:11:58;;;;;;;1.60;0.10;;;;;;;;;;5025736;28;20029;-84
2021/08/29 10:14:26;;;;;;;0.10;0.10;;;;;;;;;;5023855;28;20125;-82
2021/08/29 10:17:10;;;;;;;0.35;0.17;;;;;;;;;;5044505;28;20064;-82
2021/08/29 10:19:54;;;;;;;2.28;0.30;;;;;;;;;;5045805;28;20072;-82
2021/08/29 10:22:39;;;;;;;3.65;0.45;;;;;;;;;;5045253;28;20091;-82
2021/08/29 10:25:05;;;;;;;4.50;0.30;;;;;;;;;;5028065;28;20029;-80
2021/08/29 10:27:33;;;;;;;0.68;0.10;;;;;;;;;;5044991;28;20034;-81
2021/08/29 10:30:20;;;;;;;0.00;0.00;;;;;;;;;;5034634;28;20067;-81
2021/08/29 10:33:17;;;;;;;1.35;1.25;;;;;;;;;;5043427;28;20048;-81
2021/08/29 10:35:54;;;;;;;2.85;0.30;;;;;;;;;;5030331;28;20499;-82
2021/08/29 10:38:39;;;;;;;0.10;0.10;;;;;;;;;;5053988;28;20055;-81
2021/08/29 10:41:41;;;;;;;3.35;0.25;;;;;;;;;;5088861;28;20036;-81
2021/08/29 10:44:13;;;;;;;0.28;0.10;;;;;;;;;;5071213;28;20032;-81
2021/08/29 10:46:58;;;;;;;0.20;0.20;;;;;;;;;;5088234;28;20063;-80
2021/08/29 10:49:45;;;;;;;0.10;0.10;;;;;;;;;;5092738;28;20059;-82
2021/08/29 10:52:14;;;;;;;0.20;0.10;;;;;;;;;;5073929;28;20123;-83
2021/08/29 10:54:55;;;;;;;0.10;0.10;;;;;;;;;;5073219;28;20119;-83
2021/08/29 10:57:31;;;;;;;0.00;0.00;;;;;;;;;;5063687;28;20032;-82
2021/08/29 11:00:17;;;;;;;31.60;0.63;;;;;;;;;;5065612;28;20036;-81
2021/08/29 11:02:48;;;;;;;5.82;0.50;;;;;;;;;;5063577;28;20039;-81
2021/08/29 11:05:33;;;;;;;0.10;0.10;;;;;;;;;;5081321;28;20090;-82
2021/08/29 11:08:23;;;;;;;0.52;0.10;;;;;;;;;;5061075;28;20547;-81
2021/08/29 11:10:48;;;;;;;0.28;0.28;;;;;;;;;;5024326;28;20040;-81
2021/08/29 11:13:28;;;;;;;0.10;0.10;;;;;;;;;;5023865;28;20057;-80
2021/08/29 11:16:16;;;;;;;0.70;0.10;;;;;;;;;;5039041;28;20128;-81
2021/08/29 11:19:02;;;;;;;1.65;0.30;;;;;;;;;;5039413;28;20048;-82
2021/08/29 11:21:37;;;;;;;0.55;0.30;;;;;;;;;;5023997;28;20041;-81
2021/08/29 11:24:57;;;;;;;0.98;0.40;;;;;;;;;;5040064;28;20048;-80
2021/08/29 11:27:37;;;;;;;0.10;0.10;;;;;;;;;;5038137;28;20040;-78
2021/08/29 11:30:35;;;;;;;0.25;0.25;;;;;;;;;;5038004;28;20038;-80
2021/08/29 11:33:10;;;;;;;3.08;1.63;;;;;;;;;;5023223;28;20056;-81
2021/08/29 11:35:51;;;;;;;0.77;0.70;;;;;;;;;;5023160;28;20128;-81
2021/08/29 11:38:37;;;;;;;1.17;0.30;;;;;;;;;;5045837;28;20071;-82
2021/08/29 11:41:09;;;;;;;0.88;0.30;;;;;;;;;;5041573;28;20045;-83
2021/08/29 11:43:48;;;;;;;0.75;0.28;;;;;;;;;;5042552;28;20124;-83
2021/08/29 11:46:19;;;;;;;0.20;0.10;;;;;;;;;;5044552;28;20029;-82
2021/08/29 11:49:06;;;;;;;0.22;0.20;;;;;;;;;;5061725;28;20056;-83
2021/08/29 11:51:39;;;;;;;0.20;0.20;;;;;;;;;;5059519;28;20486;-83
2021/08/29 11:54:25;;;;;;;0.20;0.20;;;;;;;;;;5047378;28;20104;-82
2021/08/29 11:57:00;;;;;;;0.52;0.20;;;;;;;;;;5047592;28;20036;-80
2021/08/29 11:59:33;;;;;;;0.45;0.22;;;;;;;;;;5046843;28;20029;-80
2021/08/29 12:02:18;;;;;;;0.55;0.45;;;;;;;;;;5048036;28;20025;-80
2021/08/29 12:04:52;;;;;;;0.15;0.15;;;;;;;;;;5045661;28;20036;-80
2021/08/29 12:07:37;;;;;;;0.00;0.00;;;;;;;;;;5063091;28;20066;-80
2021/08/29 12:10:25;;;;;;;0.93;0.30;;;;;;;;;;5059962;28;20070;-81
2021/08/29 12:13:11;;;;;;;0.20;0.20;;;;;;;;;;5063570;28;20072;-78
2021/08/29 12:16:09;;;;;;;1.13;0.40;;;;;;;;;;5055312;28;20095;-79
2021/08/29 12:19:01;;;;;;;1.20;0.68;;;;;;;;;;5059062;28;20037;-78
2021/08/29 12:21:47;;;;;;;0.77;0.40;;;;;;;;;;5059476;28;20055;-79
2021/08/29 12:24:42;;;;;;;0.35;0.30;;;;;;;;;;5059129;28;20033;-78
2021/08/29 12:27:19;;;;;;;3.42;0.28;;;;;;;;;;5040786;28;20071;-81
2021/08/29 12:29:50;;;;;;;3.22;0.30;;;;;;;;;;5043524;28;20506;-78
2021/08/29 12:32:32;;;;;;;0.20;0.20;;;;;;;;;;5058444;28;20068;-79
2021/08/29 12:35:04;;;;;;;0.35;0.35;;;;;;;;;;5041898;28;20135;-80
2021/08/29 12:37:33;;;;;;;2.88;0.57;;;;;;;;;;5059387;28;20112;-79
2021/08/29 12:40:00;;;;;;;0.30;0.30;;;;;;;;;;5039862;28;20632;-79
2021/08/29 12:42:28;;;;;;;0.38;0.38;;;;;;;;;;5021337;28;20041;-78
2021/08/29 12:45:04;;;;;;;0.90;0.30;;;;;;;;;;5021827;28;20030;-79
2021/08/29 12:47:31;;;;;;;0.77;0.30;;;;;;;;;;5021182;28;20040;-76
2021/08/29 12:49:58;;;;;;;1.17;0.38;;;;;;;;;;5037369;28;20614;-78
2021/08/29 12:52:27;;;;;;;2.22;0.52;;;;;;;;;;5018948;28;20037;-80
2021/08/29 12:54:54;;;;;;;0.30;0.30;;;;;;;;;;5038793;28;20069;-79
2021/08/29 12:57:24;;;;;;;0.30;0.30;;;;;;;;;;5037021;28;20033;-78
2021/08/29 13:00:03;;;;;;;0.25;0.25;;;;;;;;;;5020662;28;20380;-79
2021/08/29 13:02:36;;;;;;;0.93;0.30;;;;;;;;;;5035612;28;20057;-78
2021/08/29 13:05:02;;;;;;;0.40;0.40;;;;;;;;;;5036681;28;20033;-79
2021/08/29 13:07:29;;;;;;;0.73;0.52;;;;;;;;;;5035478;28;20487;-81
2021/08/29 13:10:07;;;;;;;0.70;0.70;;;;;;;;;;5051131;28;20036;-80
2021/08/29 13:12:34;;;;;;;0.80;0.63;;;;;;;;;;5017323;28;20060;-78
2021/08/29 13:15:00;;;;;;;0.55;0.55;;;;;;;;;;5017719;28;20464;-77
2021/08/29 13:17:30;;;;;;;0.52;0.52;;;;;;;;;;5039526;28;20037;-78
2021/08/29 13:20:07;;;;;;;0.80;0.80;;;;;;;;;;5037071;28;20036;-77
2021/08/29 13:22:38;;;;;;;1.55;0.70;;;;;;;;;;5025743;28;20064;-78
2021/08/29 13:25:29;;;;;;;1.98;0.70;;;;;;;;;;5023577;28;20129;-79
2021/08/29 13:27:59;;;;;;;1.85;0.57;;;;;;;;;;5029320;28;20063;-80
2021/08/29 13:30:31;;;;;;;3.60;2.30;;;;;;;;;;5027368;28;20039;-79
2021/08/29 13:32:59;;;;;;;2.05;1.17;;;;;;;;;;5033972;28;20042;-79
2021/08/29 13:35:32;;;;;;;0.65;0.50;;;;;;;;;;5049327;28;20041;-79
2021/08/29 13:38:01;;;;;;;0.57;0.57;;;;;;;;;;5043798;28;20029;-80
2021/08/29 13:40:28;;;;;;;1.30;0.60;;;;;;;;;;5051513;28;20029;-80
2021/08/29 13:42:56;;;;;;;0.80;0.50;;;;;;;;;;5036574;28;20564;-78
2021/08/29 13:45:41;;;;;;;0.60;0.60;;;;;;;;;;5037280;28;20041;-80
2021/08/29 13:48:09;;;;;;;0.63;0.63;;;;;;;;;;5037756;28;20087;-80
2021/08/29 13:50:36;;;;;;;0.68;0.68;;;;;;;;;;5040688;28;20063;-80
2021/08/29 13:53:10;;;;;;;0.50;0.50;;;;;;;;;;5039800;28;20041;-79
2021/08/29 13:55:40;;;;;;;0.55;0.55;;;;;;;;;;5039433;28;20049;-83
2021/08/29 13:58:07;;;;;;;0.80;0.50;;;;;;;;;;5039114;28;20034;-82
2021/08/29 14:00:34;;;;;;;0.50;0.50;;;;;;;;;;5022803;28;20128;-81
2021/08/29 14:03:00;;;;;;;0.85;0.60;;;;;;;;;;5040918;28;20033;-81
2021/08/29 14:05:27;;;;;;;0.60;0.60;;;;;;;;;;5023318;28;20372;-80
2021/08/29 14:07:53;;;;;;;2.08;0.70;;;;;;;;;;5040563;28;20048;-80
2021/08/29 14:10:23;;;;;;;0.85;0.50;;;;;;;;;;5031826;28;20036;-82
2021/08/29 14:12:50;;;;;;;0.43;0.43;;;;;;;;;;5064320;28;20032;-83
2021/08/29 14:15:21;;;;;;;0.63;0.63;;;;;;;;;;5064650;28;20028;-84
2021/08/29 14:17:47;;;;;;;0.65;0.65;;;;;;;;;;5063468;28;20032;-81
2021/08/29 14:20:14;;;;;;;0.95;0.70;;;;;;;;;;5080165;28;20056;-78
2021/08/29 14:22:42;;;;;;;0.52;0.52;;;;;;;;;;5061814;28;20082;-80
2021/08/29 14:25:09;;;;;;;0.55;0.55;;;;;;;;;;5076412;28;20141;-77
2021/08/29 14:27:34;;;;;;;3.28;2.10;;;;;;;;;;5074831;28;20029;-78
2021/08/29 14:30:02;;;;;;;0.85;0.60;;;;;;;;;;5060564;28;20483;-78
2021/08/29 14:32:28;;;;;;;1.08;0.80;;;;;;;;;;5034489;28;20049;-77
2021/08/29 14:34:59;;;;;;;0.80;0.80;;;;;;;;;;5018933;28;20124;-78
2021/08/29 14:37:25;;;;;;;1.10;1.00;;;;;;;;;;5038204;28;20144;-83
2021/08/29 14:39:50;;;;;;;1.00;0.70;;;;;;;;;;5046181;28;20523;-82
2021/08/29 14:42:16;;;;;;;1.80;0.70;;;;;;;;;;5042465;28;20033;-80
2021/08/29 14:44:42;;;;;;;0.77;0.60;;;;;;;;;;5058887;28;20102;-80
2021/08/29 14:47:09;;;;;;;0.77;0.77;;;;;;;;;;5041263;28;20486;-83
2021/08/29 14:49:34;;;;;;;1.00;0.70;;;;;;;;;;5059044;28;20040;-81
2021/08/29 14:52:01;;;;;;;0.70;0.70;;;;;;;;;;5042903;28;20104;-80
2021/08/29 14:54:26;;;;;;;2.53;1.40;;;;;;;;;;5042924;28;20064;-80
2021/08/29 14:56:51;;;;;;;1.98;0.95;;;;;;;;;;5042808;28;20056;-80
2021/08/29 14:59:17;;;;;;;0.70;0.70;;;;;;;;;;5039207;28;20467;-77
2021/08/29 15:01:42;;;;;;;2.00;0.90;;;;;;;;;;5035042;28;20037;-78
2021/08/29 15:04:09;;;;;;;1.05;0.75;;;;;;;;;;5035006;28;20041;-78
2021/08/29 15:06:36;;;;;;;2.35;0.85;;;;;;;;;;5035082;28;20038;-78
2021/08/29 15:09:01;;;;;;;1.35;0.90;;;;;;;;;;5036742;28;20029;-78
2021/08/29 15:11:27;;;;;;;0.90;0.90;;;;;;;;;;5034930;28;20043;-78
2021/08/29 15:13:53;;;;;;;1.77;0.95;;;;;;;;;;5018281;28;20033;-78
2021/08/29 15:16:18;;;;;;;3.67;1.00;;;;;;;;;;5037686;28;20036;-78
2021/08/29 15:18:44;;;;;;;1.45;0.88;;;;;;;;;;5038125;28;20560;-78
2021/08/29 15:21:15;;;;;;;1.13;1.00;;;;;;;;;;5056398;28;20028;-78